Cambridgeport, VT (05141)

11:57 AM EDT on August 30, 2015 (GMT -0400)
Near Bartonsville | | Change Station
CLOSE
Current Station
Personal Weather Station
Location: Chester, VT
Elevation: 699 ft
Nearby Weather Stations

Elev 699 ft 43.23 °N, 72.56 °W | Updated 32 seconds ago

Clear
Clear
76.8 °F
Feels Like 79 °F
N
0.0
Wind Variable Wind from South
Gusts 0.0 mph

Today
High -- | Low -- °F
--% Chance of Precip.
Yesterday
High -- | Low -- °F
Precip. -- in
6:12 AM 7:29 PM
Full, 99% visible
Pressure 30.09 in
Visibility 10.0 miles
Clouds Few 4300 ft
Heat Index 79 °F
Dew Point 58 °F
Humidity 53%
Rainfall 0.00 in
Snow Depth Not available.
UV 6.0 out of 12
Pollen 8.10 out of 12
Air Quality Not available.
Flu Activity Not available.
METAR KVSF 301554Z AUTO 21003KT 10SM FEW043 26/14 A3009 RMK AO2 SLP187 T02560144
Pressure 30.09 in
Visibility 10.0 miles
Clouds Few 4300 ft
Heat Index 79 °F
Dew Point 58 °F
Humidity 53%
Rainfall 0.00 in
Snow Depth Not available.
UV 6.0 out of 12
Pollen 8.10 out of 12
Air Quality Not available.
Flu Activity Not available.
METAR KVSF 301554Z AUTO 21003KT 10SM FEW043 26/14 A3009 RMK AO2 SLP187 T02560144

10-Day Weather Forecast

×

Almanac

Astronomy

Aug. 30, 2015 Rise Set
Actual Time
Civil Twilight
Nautical Twilight
Astronomical Twilight
Moon
Length of Visible Light
Length of Day
Tomorrow will be .
, % of the Moon is Illuminated

Today's Extremes

State Highs State Lows

Community

WunderPhotos

Upload Photos

1,850,997 photos uploaded!

WunderBlogs® & News

Nearby

Air Quality

  Air Quality AQ Index Pollutant
Not available.

Snow Depth

Station Depth Elevation

Earthquake Activity

City Distance Mag. Time & Date
Minimum magnitude displayed is 2.5.

Coastal Water Temperatures

Place Temperature

Stations

Nearby Weather Stations

Station Location Temp. Windchill Dew Point Humidity Wind Precip. Elev Updated Type